sensor_id;sensor_type;location;lat;lon;timestamp;temperature;humidity
51655;DHT22;37732;53.106;7.030;2023-02-10T00:01:25;2.20;99.90
51655;DHT22;37732;53.106;7.030;2023-02-10T00:03:51;2.10;99.90
51655;DHT22;37732;53.106;7.030;2023-02-10T00:06:19;2.10;99.90
51655;DHT22;37732;53.106;7.030;2023-02-10T00:08:50;2.70;99.90
51655;DHT22;37732;53.106;7.030;2023-02-10T00:11:16;2.30;99.90
51655;DHT22;37732;53.106;7.030;2023-02-10T00:13:42;2.10;99.90
51655;DHT22;37732;53.106;7.030;2023-02-10T00:16:12;2.20;99.90
51655;DHT22;37732;53.106;7.030;2023-02-10T00:18:38;2.00;99.90
51655;DHT22;37732;53.106;7.030;2023-02-10T00:21:13;2.00;99.90
51655;DHT22;37732;53.106;7.030;2023-02-10T00:23:39;2.00;99.90
51655;DHT22;37732;53.106;7.030;2023-02-10T00:26:07;1.90;99.90
51655;DHT22;37732;53.106;7.030;2023-02-10T00:28:34;1.90;99.90
51655;DHT22;37732;53.106;7.030;2023-02-10T00:31:09;2.60;99.90
51655;DHT22;37732;53.106;7.030;2023-02-10T00:33:34;1.90;99.90
51655;DHT22;37732;53.106;7.030;2023-02-10T00:36:04;1.80;99.90
51655;DHT22;37732;53.106;7.030;2023-02-10T00:38:30;1.80;99.90
51655;DHT22;37732;53.106;7.030;2023-02-10T00:41:05;2.20;99.90
51655;DHT22;37732;53.106;7.030;2023-02-10T00:43:31;1.80;99.90
51655;DHT22;37732;53.106;7.030;2023-02-10T00:45:57;1.80;99.90
51655;DHT22;37732;53.106;7.030;2023-02-10T00:48:23;1.80;99.90
51655;DHT22;37732;53.106;7.030;2023-02-10T00:50:48;2.30;99.90
51655;DHT22;37732;53.106;7.030;2023-02-10T00:53:14;1.70;99.90
51655;DHT22;37732;53.106;7.030;2023-02-10T00:55:40;1.70;99.90
51655;DHT22;37732;53.106;7.030;2023-02-10T00:58:06;2.10;99.90
51655;DHT22;37732;53.106;7.030;2023-02-10T01:00:32;1.70;99.90
51655;DHT22;37732;53.106;7.030;2023-02-10T01:02:57;1.70;99.90
51655;DHT22;37732;53.106;7.030;2023-02-10T01:05:23;1.70;99.90
51655;DHT22;37732;53.106;7.030;2023-02-10T01:07:48;2.10;99.90
51655;DHT22;37732;53.106;7.030;2023-02-10T01:10:14;1.70;99.90
51655;DHT22;37732;53.106;7.030;2023-02-10T01:12:40;1.70;99.90
51655;DHT22;37732;53.106;7.030;2023-02-10T01:15:06;1.60;99.90
51655;DHT22;37732;53.106;7.030;2023-02-10T01:17:32;1.60;99.90
51655;DHT22;37732;53.106;7.030;2023-02-10T01:19:58;2.50;99.90
51655;DHT22;37732;53.106;7.030;2023-02-10T01:22:23;1.60;99.90
51655;DHT22;37732;53.106;7.030;2023-02-10T01:24:49;1.60;99.90
51655;DHT22;37732;53.106;7.030;2023-02-10T01:27:15;1.60;99.90
51655;DHT22;37732;53.106;7.030;2023-02-10T01:29:41;1.60;99.90
51655;DHT22;37732;53.106;7.030;2023-02-10T01:32:06;1.50;99.90
51655;DHT22;37732;53.106;7.030;2023-02-10T01:34:32;1.50;99.90
51655;DHT22;37732;53.106;7.030;2023-02-10T01:36:58;1.90;99.90
51655;DHT22;37732;53.106;7.030;2023-02-10T01:39:23;2.60;99.90
51655;DHT22;37732;53.106;7.030;2023-02-10T01:41:49;1.40;99.90
51655;DHT22;37732;53.106;7.030;2023-02-10T01:46:53;1.30;99.90
51655;DHT22;37732;53.106;7.030;2023-02-10T01:49:22;1.30;99.90
51655;DHT22;37732;53.106;7.030;2023-02-10T01:51:53;1.30;99.90
51655;DHT22;37732;53.106;7.030;2023-02-10T01:54:39;1.20;99.90
51655;DHT22;37732;53.106;7.030;2023-02-10T01:57:06;1.20;99.90
51655;DHT22;37732;53.106;7.030;2023-02-10T01:59:34;1.10;99.90
51655;DHT22;37732;53.106;7.030;2023-02-10T02:02:01;1.10;99.90
51655;DHT22;37732;53.106;7.030;2023-02-10T02:05:17;1.10;99.90
51655;DHT22;37732;53.106;7.030;2023-02-10T02:07:33;1.00;99.90
51655;DHT22;37732;53.106;7.030;2023-02-10T02:10:02;1.00;99.90
51655;DHT22;37732;53.106;7.030;2023-02-10T02:15:21;0.90;99.90
51655;DHT22;37732;53.106;7.030;2023-02-10T02:32:11;0.90;99.90
51655;DHT22;37732;53.106;7.030;2023-02-10T02:34:52;1.00;99.90
51655;DHT22;37732;53.106;7.030;2023-02-10T02:37:23;1.00;99.90
51655;DHT22;37732;53.106;7.030;2023-02-10T02:39:52;1.90;99.90
51655;DHT22;37732;53.106;7.030;2023-02-10T02:42:23;1.00;99.90
51655;DHT22;37732;53.106;7.030;2023-02-10T02:44:53;1.00;99.90
51655;DHT22;37732;53.106;7.030;2023-02-10T02:47:38;1.00;99.90
51655;DHT22;37732;53.106;7.030;2023-02-10T02:55:44;1.00;99.90
51655;DHT22;37732;53.106;7.030;2023-02-10T02:58:26;1.00;99.90
51655;DHT22;37732;53.106;7.030;2023-02-10T03:00:53;1.00;99.90
51655;DHT22;37732;53.106;7.030;2023-02-10T03:03:20;1.00;99.90
51655;DHT22;37732;53.106;7.030;2023-02-10T03:05:46;0.70;99.90
51655;DHT22;37732;53.106;7.030;2023-02-10T03:08:12;1.00;99.90
51655;DHT22;37732;53.106;7.030;2023-02-10T03:10:38;1.00;99.90
51655;DHT22;37732;53.106;7.030;2023-02-10T03:13:04;0.90;99.90
51655;DHT22;37732;53.106;7.030;2023-02-10T03:15:30;1.40;99.90
51655;DHT22;37732;53.106;7.030;2023-02-10T03:17:56;0.90;99.90
51655;DHT22;37732;53.106;7.030;2023-02-10T03:20:22;0.90;99.90
51655;DHT22;37732;53.106;7.030;2023-02-10T03:22:48;0.80;99.90
51655;DHT22;37732;53.106;7.030;2023-02-10T03:25:14;0.80;99.90
51655;DHT22;37732;53.106;7.030;2023-02-10T03:27:39;1.50;99.90
51655;DHT22;37732;53.106;7.030;2023-02-10T03:30:05;0.80;99.90
51655;DHT22;37732;53.106;7.030;2023-02-10T03:32:32;0.90;99.90
51655;DHT22;37732;53.106;7.030;2023-02-10T03:34:58;0.90;99.90
51655;DHT22;37732;53.106;7.030;2023-02-10T03:37:23;0.90;99.90
51655;DHT22;37732;53.106;7.030;2023-02-10T03:39:49;0.90;99.90
51655;DHT22;37732;53.106;7.030;2023-02-10T03:42:15;1.50;99.90
51655;DHT22;37732;53.106;7.030;2023-02-10T03:44:40;1.00;99.90
51655;DHT22;37732;53.106;7.030;2023-02-10T03:47:06;1.00;99.90
51655;DHT22;37732;53.106;7.030;2023-02-10T03:49:33;1.10;99.90
51655;DHT22;37732;53.106;7.030;2023-02-10T03:51:59;1.10;99.90
51655;DHT22;37732;53.106;7.030;2023-02-10T03:54:25;1.10;99.90
51655;DHT22;37732;53.106;7.030;2023-02-10T03:56:51;2.10;99.90
51655;DHT22;37732;53.106;7.030;2023-02-10T03:59:17;1.10;99.90
51655;DHT22;37732;53.106;7.030;2023-02-10T04:01:42;2.20;99.90
51655;DHT22;37732;53.106;7.030;2023-02-10T04:04:08;1.20;99.90
51655;DHT22;37732;53.106;7.030;2023-02-10T04:06:34;1.20;99.90
51655;DHT22;37732;53.106;7.030;2023-02-10T04:08:59;2.40;99.90
51655;DHT22;37732;53.106;7.030;2023-02-10T04:11:25;1.20;99.90
51655;DHT22;37732;53.106;7.030;2023-02-10T04:13:51;1.20;99.90
51655;DHT22;37732;53.106;7.030;2023-02-10T04:16:17;1.30;99.90
51655;DHT22;37732;53.106;7.030;2023-02-10T04:18:45;1.30;99.90
51655;DHT22;37732;53.106;7.030;2023-02-10T04:21:11;1.50;99.90
51655;DHT22;37732;53.106;7.030;2023-02-10T04:23:38;2.10;99.90
51655;DHT22;37732;53.106;7.030;2023-02-10T04:26:04;1.40;99.90
51655;DHT22;37732;53.106;7.030;2023-02-10T04:28:30;1.40;99.90
51655;DHT22;37732;53.106;7.030;2023-02-10T04:30:57;1.40;99.90
51655;DHT22;37732;53.106;7.030;2023-02-10T04:33:24;1.50;99.90
51655;DHT22;37732;53.106;7.030;2023-02-10T04:35:51;1.50;99.90
51655;DHT22;37732;53.106;7.030;2023-02-10T04:38:17;1.60;99.90
51655;DHT22;37732;53.106;7.030;2023-02-10T04:40:43;1.60;99.90
51655;DHT22;37732;53.106;7.030;2023-02-10T04:43:10;1.60;99.90
51655;DHT22;37732;53.106;7.030;2023-02-10T04:45:37;1.70;99.90
51655;DHT22;37732;53.106;7.030;2023-02-10T04:48:03;1.70;99.90
51655;DHT22;37732;53.106;7.030;2023-02-10T04:50:28;1.70;99.90
51655;DHT22;37732;53.106;7.030;2023-02-10T04:52:54;1.70;99.90
51655;DHT22;37732;53.106;7.030;2023-02-10T04:55:20;1.70;99.90
51655;DHT22;37732;53.106;7.030;2023-02-10T04:57:46;1.90;99.90
51655;DHT22;37732;53.106;7.030;2023-02-10T05:00:12;1.90;99.90
51655;DHT22;37732;53.106;7.030;2023-02-10T05:02:38;1.80;99.90
51655;DHT22;37732;53.106;7.030;2023-02-10T05:05:04;1.80;99.90
51655;DHT22;37732;53.106;7.030;2023-02-10T05:07:30;1.80;99.90
51655;DHT22;37732;53.106;7.030;2023-02-10T05:09:56;1.80;99.90
51655;DHT22;37732;53.106;7.030;2023-02-10T05:12:22;1.70;99.90
51655;DHT22;37732;53.106;7.030;2023-02-10T05:14:48;2.30;99.90
51655;DHT22;37732;53.106;7.030;2023-02-10T05:17:14;2.20;99.90
51655;DHT22;37732;53.106;7.030;2023-02-10T05:19:40;1.70;99.90
51655;DHT22;37732;53.106;7.030;2023-02-10T05:22:06;2.70;99.90
51655;DHT22;37732;53.106;7.030;2023-02-10T05:24:31;1.60;99.90
51655;DHT22;37732;53.106;7.030;2023-02-10T05:26:57;1.60;99.90
51655;DHT22;37732;53.106;7.030;2023-02-10T05:29:23;1.60;99.90
51655;DHT22;37732;53.106;7.030;2023-02-10T05:31:49;1.60;99.90
51655;DHT22;37732;53.106;7.030;2023-02-10T05:34:14;1.60;99.90
51655;DHT22;37732;53.106;7.030;2023-02-10T05:36:40;2.30;99.90
51655;DHT22;37732;53.106;7.030;2023-02-10T05:39:08;1.60;99.90
51655;DHT22;37732;53.106;7.030;2023-02-10T05:41:54;1.60;99.90
51655;DHT22;37732;53.106;7.030;2023-02-10T05:44:21;1.70;99.90
51655;DHT22;37732;53.106;7.030;2023-02-10T05:46:47;1.60;99.90
51655;DHT22;37732;53.106;7.030;2023-02-10T05:49:13;1.70;99.90
51655;DHT22;37732;53.106;7.030;2023-02-10T05:51:39;1.70;99.90
51655;DHT22;37732;53.106;7.030;2023-02-10T05:54:04;1.70;99.90
51655;DHT22;37732;53.106;7.030;2023-02-10T05:56:30;1.60;99.90
51655;DHT22;37732;53.106;7.030;2023-02-10T05:58:56;1.60;99.90
51655;DHT22;37732;53.106;7.030;2023-02-10T06:01:22;1.60;99.90
51655;DHT22;37732;53.106;7.030;2023-02-10T06:03:48;1.60;99.90
51655;DHT22;37732;53.106;7.030;2023-02-10T06:06:13;1.60;99.90
51655;DHT22;37732;53.106;7.030;2023-02-10T06:08:39;1.60;99.90
51655;DHT22;37732;53.106;7.030;2023-02-10T06:11:05;1.60;99.90
51655;DHT22;37732;53.106;7.030;2023-02-10T06:13:31;1.70;99.90
51655;DHT22;37732;53.106;7.030;2023-02-10T06:15:57;1.70;99.90
51655;DHT22;37732;53.106;7.030;2023-02-10T06:18:23;1.70;99.90
51655;DHT22;37732;53.106;7.030;2023-02-10T06:20:49;2.00;99.90
51655;DHT22;37732;53.106;7.030;2023-02-10T06:23:16;2.60;99.90
51655;DHT22;37732;53.106;7.030;2023-02-10T06:25:43;2.60;99.90
51655;DHT22;37732;53.106;7.030;2023-02-10T06:28:09;1.60;99.90
51655;DHT22;37732;53.106;7.030;2023-02-10T06:30:34;2.10;99.90
51655;DHT22;37732;53.106;7.030;2023-02-10T06:33:00;1.50;99.90
51655;DHT22;37732;53.106;7.030;2023-02-10T06:35:26;1.50;99.90
51655;DHT22;37732;53.106;7.030;2023-02-10T06:37:52;1.40;99.90
51655;DHT22;37732;53.106;7.030;2023-02-10T06:40:18;1.40;99.90
51655;DHT22;37732;53.106;7.030;2023-02-10T06:42:43;1.40;99.90
51655;DHT22;37732;53.106;7.030;2023-02-10T06:45:09;1.30;99.90
51655;DHT22;37732;53.106;7.030;2023-02-10T06:47:35;1.30;99.90
51655;DHT22;37732;53.106;7.030;2023-02-10T06:50:02;1.30;99.90
51655;DHT22;37732;53.106;7.030;2023-02-10T06:52:29;1.30;99.90
51655;DHT22;37732;53.106;7.030;2023-02-10T06:54:55;1.30;99.90
51655;DHT22;37732;53.106;7.030;2023-02-10T06:57:21;1.60;99.90
51655;DHT22;37732;53.106;7.030;2023-02-10T06:59:46;1.30;99.90
51655;DHT22;37732;53.106;7.030;2023-02-10T07:02:12;2.40;99.90
51655;DHT22;37732;53.106;7.030;2023-02-10T07:04:38;1.30;99.90
51655;DHT22;37732;53.106;7.030;2023-02-10T07:07:04;1.60;99.90
51655;DHT22;37732;53.106;7.030;2023-02-10T07:09:30;1.40;99.90
51655;DHT22;37732;53.106;7.030;2023-02-10T07:11:57;1.50;99.90
51655;DHT22;37732;53.106;7.030;2023-02-10T07:14:23;1.30;99.90
51655;DHT22;37732;53.106;7.030;2023-02-10T07:16:49;1.40;99.90
51655;DHT22;37732;53.106;7.030;2023-02-10T07:19:15;1.40;99.90
51655;DHT22;37732;53.106;7.030;2023-02-10T07:21:41;1.40;99.90
51655;DHT22;37732;53.106;7.030;2023-02-10T07:24:06;2.10;99.90
51655;DHT22;37732;53.106;7.030;2023-02-10T07:26:33;1.40;99.90
51655;DHT22;37732;53.106;7.030;2023-02-10T07:28:58;1.40;99.90
51655;DHT22;37732;53.106;7.030;2023-02-10T07:31:24;1.40;99.90
51655;DHT22;37732;53.106;7.030;2023-02-10T07:33:50;1.50;99.90
51655;DHT22;37732;53.106;7.030;2023-02-10T07:36:16;1.50;99.90
51655;DHT22;37732;53.106;7.030;2023-02-10T07:38:42;1.60;99.90
51655;DHT22;37732;53.106;7.030;2023-02-10T07:41:08;1.50;99.90
51655;DHT22;37732;53.106;7.030;2023-02-10T07:43:34;1.60;99.90
51655;DHT22;37732;53.106;7.030;2023-02-10T07:46:00;1.70;99.90
51655;DHT22;37732;53.106;7.030;2023-02-10T07:48:26;1.80;99.90
51655;DHT22;37732;53.106;7.030;2023-02-10T07:50:52;1.80;99.90
51655;DHT22;37732;53.106;7.030;2023-02-10T07:53:20;1.90;99.90
51655;DHT22;37732;53.106;7.030;2023-02-10T07:55:46;2.00;99.90
51655;DHT22;37732;53.106;7.030;2023-02-10T07:58:12;2.10;99.90
51655;DHT22;37732;53.106;7.030;2023-02-10T08:00:38;2.60;99.90
51655;DHT22;37732;53.106;7.030;2023-02-10T08:03:04;2.70;99.90
51655;DHT22;37732;53.106;7.030;2023-02-10T08:05:30;2.30;99.90
51655;DHT22;37732;53.106;7.030;2023-02-10T08:07:56;2.40;99.90
51655;DHT22;37732;53.106;7.030;2023-02-10T08:10:22;2.50;99.90
51655;DHT22;37732;53.106;7.030;2023-02-10T08:12:47;2.50;99.90
51655;DHT22;37732;53.106;7.030;2023-02-10T08:15:14;2.60;99.90
51655;DHT22;37732;53.106;7.030;2023-02-10T08:17:43;2.70;99.90
51655;DHT22;37732;53.106;7.030;2023-02-10T08:20:10;2.70;99.90
51655;DHT22;37732;53.106;7.030;2023-02-10T08:22:36;2.70;99.90
51655;DHT22;37732;53.106;7.030;2023-02-10T08:25:03;2.70;99.90
51655;DHT22;37732;53.106;7.030;2023-02-10T08:27:29;2.70;99.90
51655;DHT22;37732;53.106;7.030;2023-02-10T08:29:55;2.80;99.90
51655;DHT22;37732;53.106;7.030;2023-02-10T08:32:21;2.90;99.90
51655;DHT22;37732;53.106;7.030;2023-02-10T08:34:48;3.00;99.90
51655;DHT22;37732;53.106;7.030;2023-02-10T08:37:16;3.00;99.90
51655;DHT22;37732;53.106;7.030;2023-02-10T08:39:42;3.00;99.90
51655;DHT22;37732;53.106;7.030;2023-02-10T08:42:13;3.00;99.90
51655;DHT22;37732;53.106;7.030;2023-02-10T08:44:42;3.00;99.90
51655;DHT22;37732;53.106;7.030;2023-02-10T08:47:08;3.30;99.90
51655;DHT22;37732;53.106;7.030;2023-02-10T08:49:37;3.10;99.90
51655;DHT22;37732;53.106;7.030;2023-02-10T08:52:02;3.20;99.90
51655;DHT22;37732;53.106;7.030;2023-02-10T08:54:28;3.20;99.90
51655;DHT22;37732;53.106;7.030;2023-02-10T08:56:54;3.40;99.90
51655;DHT22;37732;53.106;7.030;2023-02-10T08:59:20;3.70;99.90
51655;DHT22;37732;53.106;7.030;2023-02-10T09:01:46;3.10;99.90
51655;DHT22;37732;53.106;7.030;2023-02-10T09:04:12;3.10;99.90
51655;DHT22;37732;53.106;7.030;2023-02-10T09:06:39;3.00;99.90
51655;DHT22;37732;53.106;7.030;2023-02-10T09:09:13;3.40;99.90
51655;DHT22;37732;53.106;7.030;2023-02-10T09:11:40;3.00;99.90
51655;DHT22;37732;53.106;7.030;2023-02-10T09:14:07;3.10;99.90
51655;DHT22;37732;53.106;7.030;2023-02-10T09:16:33;3.00;99.90
51655;DHT22;37732;53.106;7.030;2023-02-10T09:18:59;2.90;99.90
51655;DHT22;37732;53.106;7.030;2023-02-10T09:21:25;2.90;99.90
51655;DHT22;37732;53.106;7.030;2023-02-10T09:23:51;2.90;99.90
51655;DHT22;37732;53.106;7.030;2023-02-10T09:26:17;2.80;99.90
51655;DHT22;37732;53.106;7.030;2023-02-10T09:28:44;2.80;99.90
51655;DHT22;37732;53.106;7.030;2023-02-10T09:31:12;2.80;99.90
51655;DHT22;37732;53.106;7.030;2023-02-10T09:33:38;2.90;99.90
51655;DHT22;37732;53.106;7.030;2023-02-10T09:36:05;3.00;99.90
51655;DHT22;37732;53.106;7.030;2023-02-10T09:38:32;3.10;99.90
51655;DHT22;37732;53.106;7.030;2023-02-10T09:44:30;3.30;99.90
51655;DHT22;37732;53.106;7.030;2023-02-10T09:50:03;3.50;99.90
51655;DHT22;37732;53.106;7.030;2023-02-10T09:52:48;3.60;99.90
51655;DHT22;37732;53.106;7.030;2023-02-10T09:57:57;3.80;99.90
51655;DHT22;37732;53.106;7.030;2023-02-10T10:00:32;3.90;99.90
51655;DHT22;37732;53.106;7.030;2023-02-10T10:03:02;3.90;99.90
51655;DHT22;37732;53.106;7.030;2023-02-10T10:05:38;4.10;99.90
51655;DHT22;37732;53.106;7.030;2023-02-10T10:08:23;4.20;99.90
51655;DHT22;37732;53.106;7.030;2023-02-10T10:10:50;4.30;99.90
51655;DHT22;37732;53.106;7.030;2023-02-10T10:13:24;4.40;99.90
51655;DHT22;37732;53.106;7.030;2023-02-10T10:29:45;5.00;99.90
51655;DHT22;37732;53.106;7.030;2023-02-10T10:32:15;5.10;99.90
51655;DHT22;37732;53.106;7.030;2023-02-10T10:34:49;5.20;99.90
51655;DHT22;37732;53.106;7.030;2023-02-10T10:37:20;5.30;99.90
51655;DHT22;37732;53.106;7.030;2023-02-10T10:39:50;5.40;99.90
51655;DHT22;37732;53.106;7.030;2023-02-10T10:42:41;6.10;99.90
51655;DHT22;37732;53.106;7.030;2023-02-10T10:50:25;5.90;99.90
51655;DHT22;37732;53.106;7.030;2023-02-10T10:52:53;6.30;99.90
51655;DHT22;37732;53.106;7.030;2023-02-10T10:55:39;6.00;99.90
51655;DHT22;37732;53.106;7.030;2023-02-10T11:01:00;6.20;99.90
51655;DHT22;37732;53.106;7.030;2023-02-10T11:03:27;6.30;99.90
51655;DHT22;37732;53.106;7.030;2023-02-10T11:06:19;6.40;99.90
51655;DHT22;37732;53.106;7.030;2023-02-10T11:08:58;6.50;99.90
51655;DHT22;37732;53.106;7.030;2023-02-10T11:11:38;6.50;99.90
51655;DHT22;37732;53.106;7.030;2023-02-10T11:14:17;6.50;99.90
51655;DHT22;37732;53.106;7.030;2023-02-10T11:16:46;6.50;99.90
51655;DHT22;37732;53.106;7.030;2023-02-10T11:19:27;6.60;99.90
51655;DHT22;37732;53.106;7.030;2023-02-10T11:21:54;6.70;99.90
51655;DHT22;37732;53.106;7.030;2023-02-10T11:24:28;6.60;99.90
51655;DHT22;37732;53.106;7.030;2023-02-10T11:27:17;6.70;99.90
51655;DHT22;37732;53.106;7.030;2023-02-10T11:29:51;6.90;99.90
51655;DHT22;37732;53.106;7.030;2023-02-10T11:32:33;7.00;99.90
51655;DHT22;37732;53.106;7.030;2023-02-10T11:35:01;7.10;99.90
51655;DHT22;37732;53.106;7.030;2023-02-10T11:37:31;7.10;99.90
51655;DHT22;37732;53.106;7.030;2023-02-10T11:39:59;7.10;99.90
51655;DHT22;37732;53.106;7.030;2023-02-10T11:42:30;7.10;99.90
51655;DHT22;37732;53.106;7.030;2023-02-10T11:45:02;7.10;99.90
51655;DHT22;37732;53.106;7.030;2023-02-10T11:47:30;7.10;99.90
51655;DHT22;37732;53.106;7.030;2023-02-10T11:49:56;7.10;99.90
51655;DHT22;37732;53.106;7.030;2023-02-10T11:52:25;7.20;99.90
51655;DHT22;37732;53.106;7.030;2023-02-10T11:54:53;7.20;99.90
51655;DHT22;37732;53.106;7.030;2023-02-10T12:06:33;7.40;99.90
51655;DHT22;37732;53.106;7.030;2023-02-10T12:19:20;7.50;99.90
51655;DHT22;37732;53.106;7.030;2023-02-10T12:24:54;7.70;99.90
51655;DHT22;37732;53.106;7.030;2023-02-10T12:27:53;7.70;99.90
51655;DHT22;37732;53.106;7.030;2023-02-10T12:44:02;8.00;99.90
51655;DHT22;37732;53.106;7.030;2023-02-10T12:46:49;8.10;99.90
51655;DHT22;37732;53.106;7.030;2023-02-10T12:51:56;8.30;99.90
51655;DHT22;37732;53.106;7.030;2023-02-10T12:54:30;8.30;99.90
51655;DHT22;37732;53.106;7.030;2023-02-10T12:57:12;8.30;99.90
51655;DHT22;37732;53.106;7.030;2023-02-10T12:59:50;8.40;99.90
51655;DHT22;37732;53.106;7.030;2023-02-10T13:02:23;8.40;99.90
51655;DHT22;37732;53.106;7.030;2023-02-10T13:04:56;8.40;99.90
51655;DHT22;37732;53.106;7.030;2023-02-10T13:07:43;8.30;99.90
51655;DHT22;37732;53.106;7.030;2023-02-10T13:10:35;8.40;99.90
51655;DHT22;37732;53.106;7.030;2023-02-10T13:13:05;8.40;99.90
51655;DHT22;37732;53.106;7.030;2023-02-10T13:15:43;8.30;99.90
51655;DHT22;37732;53.106;7.030;2023-02-10T13:21:00;8.30;99.90
51655;DHT22;37732;53.106;7.030;2023-02-10T13:26:52;8.20;99.90
51655;DHT22;37732;53.106;7.030;2023-02-10T13:32:05;8.10;99.90
51655;DHT22;37732;53.106;7.030;2023-02-10T13:34:45;8.00;99.90
51655;DHT22;37732;53.106;7.030;2023-02-10T13:37:17;8.00;99.90
51655;DHT22;37732;53.106;7.030;2023-02-10T13:39:53;7.90;99.90
51655;DHT22;37732;53.106;7.030;2023-02-10T13:45:00;7.90;99.90
51655;DHT22;37732;53.106;7.030;2023-02-10T13:47:30;7.80;99.90
51655;DHT22;37732;53.106;7.030;2023-02-10T13:50:47;7.80;99.90
51655;DHT22;37732;53.106;7.030;2023-02-10T13:53:02;7.80;99.90
51655;DHT22;37732;53.106;7.030;2023-02-10T14:00:50;8.10;99.90
51655;DHT22;37732;53.106;7.030;2023-02-10T14:08:42;8.00;99.90
51655;DHT22;37732;53.106;7.030;2023-02-10T14:16:30;8.00;99.90
51655;DHT22;37732;53.106;7.030;2023-02-10T14:18:59;8.00;99.90
51655;DHT22;37732;53.106;7.030;2023-02-10T14:21:25;7.90;99.90
51655;DHT22;37732;53.106;7.030;2023-02-10T14:23:55;7.90;99.90
51655;DHT22;37732;53.106;7.030;2023-02-10T14:26:31;7.80;99.90
51655;DHT22;37732;53.106;7.030;2023-02-10T14:28:59;7.80;99.90
51655;DHT22;37732;53.106;7.030;2023-02-10T14:31:30;7.70;99.90
51655;DHT22;37732;53.106;7.030;2023-02-10T14:34:00;7.70;99.90
51655;DHT22;37732;53.106;7.030;2023-02-10T14:36:27;7.70;99.90
51655;DHT22;37732;53.106;7.030;2023-02-10T14:38:56;7.80;99.90
51655;DHT22;37732;53.106;7.030;2023-02-10T14:41:23;7.80;99.90
51655;DHT22;37732;53.106;7.030;2023-02-10T14:43:51;7.70;99.90
51655;DHT22;37732;53.106;7.030;2023-02-10T14:46:26;7.70;99.90
51655;DHT22;37732;53.106;7.030;2023-02-10T14:49:08;7.60;99.90
51655;DHT22;37732;53.106;7.030;2023-02-10T14:51:43;7.60;99.90
51655;DHT22;37732;53.106;7.030;2023-02-10T14:54:22;7.50;99.90
51655;DHT22;37732;53.106;7.030;2023-02-10T14:56:57;7.60;99.90
51655;DHT22;37732;53.106;7.030;2023-02-10T14:59:29;7.50;99.90
51655;DHT22;37732;53.106;7.030;2023-02-10T15:01:58;6.80;99.90
51655;DHT22;37732;53.106;7.030;2023-02-10T15:04:25;7.50;99.90
51655;DHT22;37732;53.106;7.030;2023-02-10T15:06:55;7.50;99.90
51655;DHT22;37732;53.106;7.030;2023-02-10T15:09:27;7.50;99.90
51655;DHT22;37732;53.106;7.030;2023-02-10T15:11:57;7.50;99.90
51655;DHT22;37732;53.106;7.030;2023-02-10T15:14:50;7.50;99.90
51655;DHT22;37732;53.106;7.030;2023-02-10T15:17:21;7.50;99.90
51655;DHT22;37732;53.106;7.030;2023-02-10T15:19:58;7.40;99.90
51655;DHT22;37732;53.106;7.030;2023-02-10T15:22:42;7.40;99.90
51655;DHT22;37732;53.106;7.030;2023-02-10T15:27:53;7.40;99.90
51655;DHT22;37732;53.106;7.030;2023-02-10T15:30:21;7.40;99.90
51655;DHT22;37732;53.106;7.030;2023-02-10T15:32:52;7.30;99.90
51655;DHT22;37732;53.106;7.030;2023-02-10T15:35:19;7.30;99.90
51655;DHT22;37732;53.106;7.030;2023-02-10T15:37:57;7.20;99.90
51655;DHT22;37732;53.106;7.030;2023-02-10T15:40:27;7.20;99.90
51655;DHT22;37732;53.106;7.030;2023-02-10T15:43:21;7.10;99.90
51655;DHT22;37732;53.106;7.030;2023-02-10T15:45:43;7.10;99.90
51655;DHT22;37732;53.106;7.030;2023-02-10T15:48:08;7.10;99.90
51655;DHT22;37732;53.106;7.030;2023-02-10T15:50:35;6.90;99.90
51655;DHT22;37732;53.106;7.030;2023-02-10T15:53:02;7.00;99.90
51655;DHT22;37732;53.106;7.030;2023-02-10T15:55:40;6.90;99.90
51655;DHT22;37732;53.106;7.030;2023-02-10T15:58:08;6.90;99.90
51655;DHT22;37732;53.106;7.030;2023-02-10T16:00:36;6.90;99.90
51655;DHT22;37732;53.106;7.030;2023-02-10T16:03:02;6.90;99.90
51655;DHT22;37732;53.106;7.030;2023-02-10T16:05:29;6.90;99.90
51655;DHT22;37732;53.106;7.030;2023-02-10T16:08:03;6.80;99.90
51655;DHT22;37732;53.106;7.030;2023-02-10T16:10:29;6.80;99.90
51655;DHT22;37732;53.106;7.030;2023-02-10T16:12:55;6.60;99.90
51655;DHT22;37732;53.106;7.030;2023-02-10T16:15:23;6.60;99.90
51655;DHT22;37732;53.106;7.030;2023-02-10T16:17:52;6.50;99.90
51655;DHT22;37732;53.106;7.030;2023-02-10T16:20:22;6.50;99.90
51655;DHT22;37732;53.106;7.030;2023-02-10T16:22:48;6.40;99.90
51655;DHT22;37732;53.106;7.030;2023-02-10T16:25:16;6.30;99.90
51655;DHT22;37732;53.106;7.030;2023-02-10T16:27:42;6.30;99.90
51655;DHT22;37732;53.106;7.030;2023-02-10T16:30:18;6.30;99.90
51655;DHT22;37732;53.106;7.030;2023-02-10T16:32:45;6.40;99.90
51655;DHT22;37732;53.106;7.030;2023-02-10T16:35:12;6.30;99.90
51655;DHT22;37732;53.106;7.030;2023-02-10T16:37:38;6.30;99.90
51655;DHT22;37732;53.106;7.030;2023-02-10T16:40:05;6.30;99.90
51655;DHT22;37732;53.106;7.030;2023-02-10T16:42:30;6.30;99.90
51655;DHT22;37732;53.106;7.030;2023-02-10T16:44:56;6.30;99.90
51655;DHT22;37732;53.106;7.030;2023-02-10T16:47:22;6.30;99.90
51655;DHT22;37732;53.106;7.030;2023-02-10T16:49:48;6.20;99.90
51655;DHT22;37732;53.106;7.030;2023-02-10T16:52:15;6.30;99.90
51655;DHT22;37732;53.106;7.030;2023-02-10T16:54:46;6.20;99.90
51655;DHT22;37732;53.106;7.030;2023-02-10T16:57:13;6.20;99.90
51655;DHT22;37732;53.106;7.030;2023-02-10T16:59:38;6.20;99.90
51655;DHT22;37732;53.106;7.030;2023-02-10T17:02:04;6.20;99.90
51655;DHT22;37732;53.106;7.030;2023-02-10T17:04:30;6.10;99.90
51655;DHT22;37732;53.106;7.030;2023-02-10T17:06:56;6.10;99.90
51655;DHT22;37732;53.106;7.030;2023-02-10T17:09:24;6.10;99.90
51655;DHT22;37732;53.106;7.030;2023-02-10T17:11:51;6.00;99.90
51655;DHT22;37732;53.106;7.030;2023-02-10T17:14:17;6.00;99.90
51655;DHT22;37732;53.106;7.030;2023-02-10T17:16:45;6.00;99.90
51655;DHT22;37732;53.106;7.030;2023-02-10T17:19:14;6.00;99.90
51655;DHT22;37732;53.106;7.030;2023-02-10T17:21:40;6.00;99.90
51655;DHT22;37732;53.106;7.030;2023-02-10T17:24:06;5.90;99.90
51655;DHT22;37732;53.106;7.030;2023-02-10T17:26:32;5.90;99.90
51655;DHT22;37732;53.106;7.030;2023-02-10T17:28:58;5.90;99.90
51655;DHT22;37732;53.106;7.030;2023-02-10T17:31:24;5.90;99.90
51655;DHT22;37732;53.106;7.030;2023-02-10T17:33:50;5.80;99.90
51655;DHT22;37732;53.106;7.030;2023-02-10T17:36:17;6.30;99.90
51655;DHT22;37732;53.106;7.030;2023-02-10T17:38:44;6.10;99.90
51655;DHT22;37732;53.106;7.030;2023-02-10T17:41:13;5.80;99.90
51655;DHT22;37732;53.106;7.030;2023-02-10T17:43:39;5.80;99.90
51655;DHT22;37732;53.106;7.030;2023-02-10T17:46:05;5.90;99.90
51655;DHT22;37732;53.106;7.030;2023-02-10T17:48:31;5.80;99.90
51655;DHT22;37732;53.106;7.030;2023-02-10T17:50:59;5.80;99.90
51655;DHT22;37732;53.106;7.030;2023-02-10T17:53:25;5.90;99.90
51655;DHT22;37732;53.106;7.030;2023-02-10T17:55:51;5.80;99.90
51655;DHT22;37732;53.106;7.030;2023-02-10T17:58:16;5.80;99.90
51655;DHT22;37732;53.106;7.030;2023-02-10T18:00:42;5.80;99.90